Ana Sayfa
METAR-TAF:

METAR-TAF

Havaalanları :

Maun, Botsvana

Enlem: 19-59S, Boylam: 023-25E, yükseklik: 945 m

Güncel hava durumu gözlemi

Rapor saat 13:00 UTC de 1 saat ve 31 dakika önce yapıldı.
Rüzgar güneydan 4 kt
Sıcaklık 37°C
Nem 13%
Basınç 1013 hPa
Görüş mesafesi 10 km veya daha fazla
1500 m altında bulut yok ve kümülonimbus yok

METAR: FBMN 151300Z 17004KT CAVOK 37/04 Q1013

Saat: 16:31 (14:31 UTC)

Tahmin

Rapor saat 09:00 UTC de 5 saat ve 31 dakika önce yapıldı.
Ayın 15'si saat 12 UTC'den ayın 15'si saat 21 UTC'ye kadar geçerli Tahmin
Rüzgar güneydoğudan 6 kt
Görüş mesafesi 10 km veya daha fazla
1500 m altında bulut yok ve kümülonimbus yok

TAF: FBMN 150900Z 1512/1521 14006KT CAVOK

4.000'den fazla havaalanı için hava durumu gözlemleri ve tahminleri (METAR ve TAF raporları).

Kullanılabilir istasyonlar harita üzerinde sarı ve kırmızı noktalarla gösterilir.

İstasyonun adını görmek için fareyi noktanın üzerinde gezdirin.

Sonrasında hava gözlem ve tahminlerini görmek için tıklayın.

Haritayı değiştirmek için: yaklaştırmak için siyah artı işaretli yeşil düğmeye ve uzaklaştırmak için de eksi işaretli düğmeye hızla tıklayın; bitişik haritalar için yeşil okları kullanın.


METAR-TAF: